createdAt,value
2023-03-19T00:00:46.542Z,100486.50
2023-03-19T00:03:13.831Z,100485.69
2023-03-19T00:05:42.035Z,100484.81
2023-03-19T00:08:09.100Z,100484.81
2023-03-19T00:10:40.019Z,100480.47
2023-03-19T00:13:07.369Z,100476.16
2023-03-19T00:15:34.742Z,100472.69
2023-03-19T00:18:02.452Z,100470.94
2023-03-19T00:20:29.691Z,100470.09
2023-03-19T00:22:57.270Z,100466.66
2023-03-19T00:25:24.598Z,100472.72
2023-03-19T00:27:53.235Z,100462.31
2023-03-19T00:30:21.720Z,100465.78
2023-03-19T00:32:49.209Z,100459.72
2023-03-19T00:35:17.442Z,100455.34
2023-03-19T00:37:44.498Z,100458.84
2023-03-19T00:40:12.320Z,100462.34
2023-03-19T00:42:39.671Z,100457.13
2023-03-19T00:45:07.826Z,100450.16
2023-03-19T00:47:35.324Z,100442.34
2023-03-19T00:50:04.681Z,100454.50
2023-03-19T00:52:32.352Z,100448.44
2023-03-19T00:54:59.685Z,100442.34
2023-03-19T00:57:27.158Z,100444.09
2023-03-19T00:59:54.440Z,100446.69
2023-03-19T01:02:22.126Z,100442.34
2023-03-19T01:04:49.608Z,100440.63
2023-03-19T01:07:17.018Z,100447.56
2023-03-19T01:09:44.504Z,100447.59
2023-03-19T01:12:11.960Z,100444.97
2023-03-19T01:14:39.869Z,100447.59
2023-03-19T01:17:07.332Z,100444.13
2023-03-19T01:19:34.813Z,100438.91
2023-03-19T01:22:02.537Z,100434.56
2023-03-19T01:24:32.183Z,100439.78
2023-03-19T01:26:59.670Z,100433.69
2023-03-19T01:29:32.251Z,100435.41
2023-03-19T01:32:08.352Z,100429.34
2023-03-19T01:34:44.461Z,100438.91
2023-03-19T01:37:15.563Z,100431.06
2023-03-19T01:39:43.903Z,100431.94
2023-03-19T01:42:14.130Z,100430.19
2023-03-19T01:44:57.611Z,100437.16
2023-03-19T01:47:39.504Z,100437.16
2023-03-19T01:50:29.073Z,100443.25
2023-03-19T01:53:17.769Z,100438.03
2023-03-19T01:56:13.154Z,100443.25
2023-03-19T01:59:09.951Z,100434.50
2023-03-19T02:02:16.827Z,100441.34
2023-03-19T02:04:47.757Z,100439.44
2023-03-19T02:07:16.060Z,100443.75
2023-03-19T02:09:44.141Z,100441.91
2023-03-19T02:12:12.852Z,100453.97
2023-03-19T02:14:40.292Z,100446.91
2023-03-19T02:17:08.793Z,100450.25
2023-03-19T02:19:47.276Z,100453.56
2023-03-19T02:22:18.072Z,100451.72
2023-03-19T02:25:02.952Z,100452.44
2023-03-19T02:27:31.197Z,100454.94
2023-03-19T02:29:58.407Z,100458.28
2023-03-19T02:32:26.849Z,100458.22
2023-03-19T02:34:54.032Z,100458.13
2023-03-19T02:37:30.072Z,100453.72
2023-03-19T02:40:04.693Z,100462.28
2023-03-19T02:42:32.294Z,100458.63
2023-03-19T02:44:59.655Z,100463.69
2023-03-19T02:47:27.596Z,100461.78
2023-03-19T02:49:55.365Z,100458.94
2023-03-19T02:52:23.411Z,100469.16
2023-03-19T02:54:51.191Z,100462.03
2023-03-19T02:57:18.471Z,100465.34
2023-03-19T02:59:45.936Z,100472.09
2023-03-19T03:02:13.510Z,100466.66
2023-03-19T03:04:42.346Z,100463.91
2023-03-19T03:07:10.218Z,100474.97
2023-03-19T03:09:37.421Z,100478.28
2023-03-19T03:12:05.112Z,100472.13
2023-03-19T03:14:32.362Z,100476.28
2023-03-19T03:17:03.529Z,100479.72
2023-03-19T03:19:31.425Z,100476.28
2023-03-19T03:21:59.265Z,100479.09
2023-03-19T03:24:26.750Z,100482.75
2023-03-19T03:26:54.420Z,100476.81
2023-03-19T03:29:22.025Z,100477.75
2023-03-19T03:31:49.134Z,100472.66
2023-03-19T03:34:16.721Z,100476.22
2023-03-19T03:36:44.334Z,100475.41
2023-03-19T03:39:12.054Z,100476.38
2023-03-19T03:41:39.547Z,100475.66
2023-03-19T03:44:07.202Z,100482.81
2023-03-19T03:46:38.828Z,100476.09
2023-03-19T03:49:07.320Z,100476.38
2023-03-19T03:51:36.305Z,100470.53
2023-03-19T03:54:04.319Z,100476.84
2023-03-19T03:56:33.573Z,100476.16
2023-03-19T03:59:04.313Z,100473.75
2023-03-19T04:01:31.669Z,100469.59
2023-03-19T04:04:00.125Z,100478.47
2023-03-19T04:06:28.877Z,100470.78
2023-03-19T04:09:14.037Z,100467.44
2023-03-19T04:11:42.631Z,100461.47
2023-03-19T04:14:10.345Z,100466.78
2023-03-19T04:16:39.807Z,100464.22
2023-03-19T04:19:08.088Z,100468.63
2023-03-19T04:21:36.078Z,100459.16
2023-03-19T04:24:03.900Z,100457.47
2023-03-19T04:26:31.883Z,100461.91
2023-03-19T04:28:59.278Z,100456.75
2023-03-19T04:31:27.573Z,100457.66
2023-03-19T04:33:55.407Z,100453.38
2023-03-19T04:36:22.798Z,100452.53
2023-03-19T04:38:50.129Z,100453.44
2023-03-19T04:41:18.214Z,100461.28
2023-03-19T04:44:00.115Z,100447.44
2023-03-19T04:46:29.343Z,100452.69
2023-03-19T04:48:57.143Z,100456.19
2023-03-19T04:51:25.173Z,100449.25
2023-03-19T04:53:52.455Z,100455.34
2023-03-19T04:56:20.056Z,100451.88
2023-03-19T04:58:48.077Z,100446.66
2023-03-19T05:01:17.464Z,100447.56
2023-03-19T05:04:03.715Z,100446.72
2023-03-19T05:06:34.710Z,100448.47
2023-03-19T05:09:03.075Z,100453.69
2023-03-19T05:11:30.489Z,100451.09
2023-03-19T05:14:04.756Z,100448.50
2023-03-19T05:16:43.684Z,100454.59
2023-03-19T05:19:10.801Z,100450.25
2023-03-19T05:21:39.517Z,100452.88
2023-03-19T05:24:07.826Z,100451.97
2023-03-19T05:26:38.014Z,100453.69
2023-03-19T05:29:46.406Z,100448.44
2023-03-19T05:32:34.208Z,100441.41
2023-03-19T05:35:04.443Z,100446.56
2023-03-19T05:37:34.655Z,100449.13
2023-03-19T05:40:02.166Z,100441.16
2023-03-19T05:42:30.332Z,100448.94
2023-03-19T05:44:59.340Z,100445.31
2023-03-19T05:47:29.169Z,100446.06
2023-03-19T05:50:02.708Z,100446.78
2023-03-19T05:52:31.847Z,100441.34
2023-03-19T05:55:01.069Z,100443.78
2023-03-19T05:57:44.819Z,100435.66
2023-03-19T06:00:24.119Z,100446.78
2023-03-19T06:02:52.149Z,100437.69
2023-03-19T06:05:19.707Z,100445.31
2023-03-19T06:07:49.168Z,100441.63
2023-03-19T06:10:45.681Z,100435.03
2023-03-19T06:13:13.901Z,100443.31
2023-03-19T06:16:01.700Z,100448.91
2023-03-19T06:18:36.981Z,100442.25
2023-03-19T06:21:11.855Z,100439.94
2023-03-19T06:23:40.061Z,100449.19
2023-03-19T06:26:09.965Z,100446.53
2023-03-19T06:28:52.650Z,100447.94
2023-03-19T06:31:21.678Z,100438.06
2023-03-19T06:34:25.136Z,100442.13
2023-03-19T06:36:54.517Z,100430.97
2023-03-19T06:39:21.931Z,100437.84
2023-03-19T06:41:49.957Z,100437.97
2023-03-19T06:44:21.884Z,100443.94
2023-03-19T06:46:52.649Z,100445.16
2023-03-19T06:49:23.202Z,100448.13
2023-03-19T06:51:52.022Z,100448.72
2023-03-19T06:54:19.754Z,100451.06
2023-03-19T06:56:50.039Z,100457.44
2023-03-19T06:59:18.634Z,100452.75
2023-03-19T07:01:47.296Z,100453.09
2023-03-19T07:04:15.893Z,100454.16
2023-03-19T07:06:44.297Z,100456.44
2023-03-19T07:09:12.159Z,100451.94
2023-03-19T07:11:40.032Z,100453.91
2023-03-19T07:14:07.851Z,100448.94
2023-03-19T07:16:35.953Z,100451.31
2023-03-19T07:19:04.409Z,100454.50
2023-03-19T07:21:32.581Z,100455.44
2023-03-19T07:24:00.312Z,100457.66
2023-03-19T07:26:28.414Z,100450.97
2023-03-19T07:28:57.052Z,100457.75
2023-03-19T07:31:25.376Z,100458.09
2023-03-19T07:33:53.848Z,100447.31
2023-03-19T07:36:22.025Z,100437.84
2023-03-19T07:38:50.275Z,100435.78
2023-03-19T07:41:19.735Z,100439.00
2023-03-19T07:43:47.462Z,100440.72
2023-03-19T07:46:15.936Z,100441.16
2023-03-19T07:48:43.629Z,100439.41
2023-03-19T07:51:12.226Z,100439.78
2023-03-19T07:53:40.133Z,100436.88
2023-03-19T07:56:08.098Z,100439.69
2023-03-19T07:58:35.730Z,100453.25
2023-03-19T08:01:03.993Z,100446.72
2023-03-19T08:03:32.733Z,100444.53
2023-03-19T08:06:00.498Z,100450.34
2023-03-19T08:08:28.610Z,100445.97
2023-03-19T08:10:57.431Z,100448.94
2023-03-19T08:13:25.803Z,100445.66
2023-03-19T08:15:53.992Z,100440.59
2023-03-19T08:18:21.334Z,100438.69
2023-03-19T08:20:49.831Z,100440.94
2023-03-19T08:23:18.150Z,100439.03
2023-03-19T08:25:45.942Z,100437.16
2023-03-19T08:28:13.680Z,100426.66
2023-03-19T08:30:44.457Z,100432.66
2023-03-19T08:33:12.986Z,100422.81
2023-03-19T08:35:41.561Z,100433.25
2023-03-19T08:38:09.351Z,100422.41
2023-03-19T08:40:37.431Z,100417.72
2023-03-19T08:43:06.064Z,100409.53
2023-03-19T08:45:33.925Z,100400.97
2023-03-19T08:48:01.520Z,100402.91
2023-03-19T08:50:29.476Z,100406.00
2023-03-19T08:52:57.874Z,100399.88
2023-03-19T08:55:25.964Z,100410.84
2023-03-19T08:57:56.944Z,100406.25
2023-03-19T09:00:25.260Z,100398.56
2023-03-19T09:02:52.657Z,100395.66
2023-03-19T09:05:25.138Z,100405.97
2023-03-19T09:07:53.563Z,100401.06
2023-03-19T09:10:21.210Z,100400.66
2023-03-19T09:12:49.127Z,100388.03
2023-03-19T09:15:17.469Z,100389.25
2023-03-19T09:17:47.322Z,100394.41
2023-03-19T09:20:15.869Z,100393.63
2023-03-19T09:22:43.503Z,100382.56
2023-03-19T09:25:11.786Z,100375.03
2023-03-19T09:27:39.327Z,100364.25
2023-03-19T09:30:10.192Z,100358.22
2023-03-19T09:32:38.443Z,100354.53
2023-03-19T09:35:07.332Z,100352.22
2023-03-19T09:37:35.591Z,100350.19
2023-03-19T09:40:06.718Z,100348.03
2023-03-19T09:43:00.372Z,100335.84
2023-03-19T09:45:30.932Z,100337.09
2023-03-19T09:48:07.184Z,100328.13
2023-03-19T09:50:38.467Z,100318.22
2023-03-19T09:53:32.790Z,100315.78
2023-03-19T09:56:03.137Z,100314.28
2023-03-19T09:58:35.904Z,100312.41
2023-03-19T10:01:04.427Z,100321.13
2023-03-19T10:03:32.176Z,100312.03
2023-03-19T10:06:25.801Z,100314.91
2023-03-19T10:09:01.956Z,100313.50
2023-03-19T10:12:00.372Z,100320.22
2023-03-19T10:15:09.247Z,100308.81
2023-03-19T10:17:49.260Z,100300.69
2023-03-19T10:20:20.863Z,100310.44
2023-03-19T10:22:54.862Z,100301.88
2023-03-19T10:25:28.140Z,100294.59
2023-03-19T10:28:06.196Z,100291.22
2023-03-19T10:30:35.433Z,100283.44
2023-03-19T10:33:21.242Z,100279.34
2023-03-19T10:35:57.075Z,100265.66
2023-03-19T10:38:27.248Z,100263.47
2023-03-19T10:41:25.287Z,100256.06
2023-03-19T10:43:59.363Z,100259.25
2023-03-19T10:46:26.938Z,100264.34
2023-03-19T10:48:54.629Z,100263.03
2023-03-19T10:51:26.696Z,100253.13
2023-03-19T10:53:57.251Z,100248.13
2023-03-19T10:56:28.067Z,100252.38
2023-03-19T10:59:07.532Z,100244.88
2023-03-19T11:01:40.966Z,100244.25
2023-03-19T11:04:19.979Z,100235.03
2023-03-19T11:06:55.838Z,100229.94
2023-03-19T11:09:45.055Z,100229.44
2023-03-19T11:12:27.384Z,100234.97
2023-03-19T11:14:58.388Z,100239.31
2023-03-19T11:17:47.002Z,100236.53
2023-03-19T11:20:36.786Z,100229.03
2023-03-19T11:23:13.196Z,100216.59
2023-03-19T11:25:43.086Z,100224.31
2023-03-19T11:28:15.080Z,100207.31
2023-03-19T11:31:07.520Z,100212.88
2023-03-19T11:34:13.261Z,100202.44
2023-03-19T11:37:09.102Z,100202.13
2023-03-19T11:39:46.070Z,100193.72
2023-03-19T11:42:51.515Z,100201.16
2023-03-19T11:45:44.663Z,100189.03
2023-03-19T11:48:27.473Z,100185.31
2023-03-19T11:51:18.799Z,100180.41
2023-03-19T11:53:57.536Z,100176.34
2023-03-19T11:56:40.632Z,100164.28
2023-03-19T11:59:42.072Z,100164.00
2023-03-19T12:02:26.080Z,100158.09
2023-03-19T12:05:00.933Z,100169.94
2023-03-19T12:07:55.119Z,100162.78
2023-03-19T12:10:38.657Z,100167.16
2023-03-19T12:13:45.206Z,100172.97
2023-03-19T12:16:15.935Z,100161.75
2023-03-19T12:19:02.672Z,100161.84
2023-03-19T12:21:54.329Z,100167.13
2023-03-19T12:24:54.474Z,100167.06
2023-03-19T12:27:52.240Z,100156.66
2023-03-19T12:30:37.437Z,100162.31
2023-03-19T12:33:21.454Z,100152.47
2023-03-19T12:35:53.697Z,100149.16
2023-03-19T12:38:55.729Z,100145.41
2023-03-19T12:41:27.508Z,100143.06
2023-03-19T12:43:58.149Z,100140.34
2023-03-19T12:46:42.076Z,100131.16
2023-03-19T12:49:26.044Z,100131.66
2023-03-19T12:52:00.637Z,100137.78
2023-03-19T12:54:34.946Z,100132.22
2023-03-19T12:57:08.141Z,100130.59
2023-03-19T12:59:45.202Z,100130.28
2023-03-19T13:02:23.236Z,100132.66
2023-03-19T13:04:59.083Z,100132.84
2023-03-19T13:07:46.290Z,100135.31
2023-03-19T13:10:24.305Z,100133.34
2023-03-19T13:12:54.765Z,100138.94
2023-03-19T13:15:48.253Z,100131.56
2023-03-19T13:18:42.838Z,100127.28
2023-03-19T13:21:27.655Z,100115.75
2023-03-19T13:24:13.176Z,100119.81
2023-03-19T13:26:41.675Z,100116.94
2023-03-19T13:29:08.877Z,100124.28
2023-03-19T13:31:38.924Z,100111.31
2023-03-19T13:34:22.613Z,100116.66
2023-03-19T13:37:14.533Z,100106.94
2023-03-19T13:39:44.943Z,100110.81
2023-03-19T13:42:25.063Z,100102.94
2023-03-19T13:44:57.533Z,100102.28
2023-03-19T13:47:37.179Z,100100.56
2023-03-19T13:50:16.581Z,100102.78
2023-03-19T13:52:51.494Z,100104.06
2023-03-19T13:55:25.223Z,100101.22
2023-03-19T13:58:39.729Z,100097.47
2023-03-19T14:01:12.146Z,100089.47
2023-03-19T14:03:42.571Z,100091.69
2023-03-19T14:06:36.366Z,100095.47
2023-03-19T14:09:06.977Z,100093.06
2023-03-19T14:11:38.200Z,100087.28
2023-03-19T14:14:13.566Z,100090.00
2023-03-19T14:16:49.216Z,100086.63
2023-03-19T14:19:20.869Z,100086.25
2023-03-19T14:22:01.401Z,100083.06
2023-03-19T14:24:55.225Z,100077.25
2023-03-19T14:27:33.541Z,100081.09
2023-03-19T14:30:18.611Z,100078.66
2023-03-19T14:32:48.427Z,100078.00
2023-03-19T14:35:22.169Z,100086.03
2023-03-19T14:37:54.781Z,100081.13
2023-03-19T14:40:27.824Z,100079.53
2023-03-19T14:43:29.116Z,100079.69
2023-03-19T14:46:04.860Z,100079.63
2023-03-19T14:48:57.557Z,100081.13
2023-03-19T14:51:51.048Z,100071.78
2023-03-19T14:54:35.028Z,100074.00
2023-03-19T14:57:33.442Z,100076.84
2023-03-19T15:00:02.396Z,100082.69
2023-03-19T15:02:36.516Z,100071.53
2023-03-19T15:05:28.754Z,100077.97
2023-03-19T15:08:08.118Z,100083.13
2023-03-19T15:10:47.232Z,100074.44
2023-03-19T15:13:46.484Z,100069.53
2023-03-19T15:16:29.274Z,100068.91
2023-03-19T15:18:56.835Z,100078.03
2023-03-19T15:21:26.453Z,100074.22
2023-03-19T15:23:56.025Z,100073.63
2023-03-19T15:26:32.697Z,100069.59
2023-03-19T15:29:00.940Z,100070.06
2023-03-19T15:31:54.871Z,100069.47
2023-03-19T15:34:31.462Z,100068.88
2023-03-19T15:37:04.300Z,100073.56
2023-03-19T15:39:42.672Z,100075.91
2023-03-19T15:42:11.581Z,100076.88
2023-03-19T15:44:46.136Z,100078.16
2023-03-19T15:47:20.829Z,100076.66
2023-03-19T15:49:56.726Z,100078.88
2023-03-19T15:52:26.668Z,100081.72
2023-03-19T15:54:56.718Z,100088.97
2023-03-19T15:57:25.733Z,100090.09
2023-03-19T15:59:58.139Z,100088.63
2023-03-19T16:02:35.329Z,100088.16
2023-03-19T16:05:21.047Z,100094.75
2023-03-19T16:07:58.839Z,100090.75
2023-03-19T16:10:31.170Z,100095.50
2023-03-19T16:13:04.500Z,100096.75
2023-03-19T16:15:44.668Z,100107.59
2023-03-19T16:18:18.623Z,100100.94
2023-03-19T16:21:07.568Z,100100.31
2023-03-19T16:23:49.766Z,100106.81
2023-03-19T16:26:32.012Z,100108.91
2023-03-19T16:29:29.722Z,100112.72
2023-03-19T16:32:08.591Z,100121.78
2023-03-19T16:34:36.765Z,100122.84
2023-03-19T16:37:38.811Z,100117.75
2023-03-19T16:40:12.104Z,100118.78
2023-03-19T16:42:42.864Z,100122.47
2023-03-19T16:45:18.907Z,100123.44
2023-03-19T16:47:54.621Z,100122.66
2023-03-19T16:50:29.513Z,100113.16
2023-03-19T16:53:01.607Z,100114.19
2023-03-19T16:55:35.349Z,100114.31
2023-03-19T16:58:08.477Z,100108.25
2023-03-19T17:00:35.903Z,100114.50
2023-03-19T17:03:03.210Z,100110.22
2023-03-19T17:05:30.812Z,100121.66
2023-03-19T17:07:58.482Z,100112.09
2023-03-19T17:10:27.959Z,100114.78
2023-03-19T17:12:56.258Z,100110.53
2023-03-19T17:15:30.615Z,100118.44
2023-03-19T17:17:58.631Z,100116.75
2023-03-19T17:20:33.492Z,100110.69
2023-03-19T17:23:00.901Z,100115.97
2023-03-19T17:25:28.336Z,100107.34
2023-03-19T17:27:56.104Z,100113.59
2023-03-19T17:30:23.147Z,100117.19
2023-03-19T17:32:51.298Z,100113.78
2023-03-19T17:35:20.926Z,100115.59
2023-03-19T17:37:49.287Z,100114.81
2023-03-19T17:40:27.105Z,100118.31
2023-03-19T17:42:55.636Z,100117.50
2023-03-19T17:45:30.103Z,100120.13
2023-03-19T17:47:58.935Z,100113.22
2023-03-19T17:50:29.214Z,100119.31
2023-03-19T17:52:56.791Z,100119.31
2023-03-19T17:55:25.472Z,100121.09
2023-03-19T17:57:53.923Z,100118.53
2023-03-19T18:00:24.185Z,100122.03
2023-03-19T18:02:54.268Z,100116.81
2023-03-19T18:05:24.253Z,100116.81
2023-03-19T18:07:54.886Z,100121.19
2023-03-19T18:10:26.870Z,100126.41
2023-03-19T18:12:54.847Z,100128.19
2023-03-19T18:15:24.154Z,100138.63
2023-03-19T18:17:54.229Z,100140.38
2023-03-19T18:20:26.107Z,100131.69
2023-03-19T18:22:53.399Z,100140.38
2023-03-19T18:25:24.992Z,100138.63
2023-03-19T18:27:53.168Z,100140.38
2023-03-19T18:30:23.306Z,100137.75
2023-03-19T18:32:56.176Z,100142.97
2023-03-19T18:35:34.722Z,100142.09
2023-03-19T18:38:02.145Z,100136.91
2023-03-19T18:40:33.041Z,100133.41
2023-03-19T18:43:02.041Z,100130.78
2023-03-19T18:45:31.352Z,100142.06
2023-03-19T18:47:58.518Z,100133.38
2023-03-19T18:50:33.051Z,100125.56
2023-03-19T18:53:00.935Z,100128.97
2023-03-19T18:55:30.665Z,100124.63
2023-03-19T18:58:01.403Z,100122.00
2023-03-19T19:00:31.196Z,100124.56
2023-03-19T19:03:00.448Z,100134.09
2023-03-19T19:05:30.124Z,100129.72
2023-03-19T19:07:59.800Z,100130.59
2023-03-19T19:10:31.300Z,100137.53
2023-03-19T19:12:58.877Z,100131.44
2023-03-19T19:15:32.969Z,100131.44
2023-03-19T19:18:00.945Z,100134.06
2023-03-19T19:20:30.982Z,100131.44
2023-03-19T19:22:58.380Z,100125.38
2023-03-19T19:25:29.143Z,100124.47
2023-03-19T19:28:01.388Z,100120.97
2023-03-19T19:30:29.291Z,100136.59
2023-03-19T19:32:57.552Z,100134.91
2023-03-19T19:35:28.882Z,100129.69
2023-03-19T19:37:56.754Z,100135.69
2023-03-19T19:40:29.495Z,100131.34
2023-03-19T19:42:57.355Z,100134.75
2023-03-19T19:45:24.293Z,100133.00
2023-03-19T19:47:51.296Z,100137.31
2023-03-19T19:50:23.594Z,100130.38
2023-03-19T19:52:50.802Z,100126.06
2023-03-19T19:55:19.005Z,100129.50
2023-03-19T19:57:47.063Z,100126.00
2023-03-19T20:00:27.484Z,100126.84
2023-03-19T20:02:56.527Z,100117.22
2023-03-19T20:05:32.847Z,100127.59
2023-03-19T20:08:02.280Z,100118.84
2023-03-19T20:10:31.639Z,100122.28
2023-03-19T20:13:01.814Z,100117.03
2023-03-19T20:15:34.265Z,100118.78
2023-03-19T20:18:03.163Z,100121.38
2023-03-19T20:20:35.914Z,100123.97
2023-03-19T20:23:03.331Z,100131.75
2023-03-19T20:25:35.226Z,100126.47
2023-03-19T20:28:04.615Z,100128.22
2023-03-19T20:30:35.143Z,100119.53
2023-03-19T20:33:02.571Z,100123.88
2023-03-19T20:35:36.440Z,100130.81
2023-03-19T20:38:05.719Z,100127.28
2023-03-19T20:40:54.835Z,100123.81
2023-03-19T20:43:29.305Z,100127.28
2023-03-19T20:46:08.115Z,100130.66
2023-03-19T20:48:35.589Z,100129.75
2023-03-19T20:51:03.679Z,100134.06
2023-03-19T20:53:31.100Z,100142.63
2023-03-19T20:56:00.199Z,100143.44
2023-03-19T20:58:33.917Z,100137.38
2023-03-19T21:01:01.545Z,100140.88
2023-03-19T21:03:31.628Z,100137.41
2023-03-19T21:06:02.272Z,100144.34
2023-03-19T21:08:32.724Z,100139.09
2023-03-19T21:11:00.991Z,100137.34
2023-03-19T21:13:29.278Z,100138.19
2023-03-19T21:15:57.039Z,100147.69
2023-03-19T21:18:24.212Z,100148.41
2023-03-19T21:20:55.342Z,100145.69
2023-03-19T21:23:34.461Z,100148.16
2023-03-19T21:26:22.717Z,100151.47
2023-03-19T21:28:54.460Z,100152.31
2023-03-19T21:31:21.883Z,100159.22
2023-03-19T21:33:51.747Z,100153.16
2023-03-19T21:36:18.913Z,100152.25
2023-03-19T21:38:46.575Z,100153.00
2023-03-19T21:41:30.476Z,100146.00
2023-03-19T21:44:06.228Z,100147.66
2023-03-19T21:46:34.610Z,100145.03
2023-03-19T21:49:02.241Z,100139.81
2023-03-19T21:51:29.949Z,100138.94
2023-03-19T21:53:57.611Z,100137.13
2023-03-19T21:56:33.594Z,100143.13
2023-03-19T21:59:04.853Z,100142.16
2023-03-19T22:01:32.476Z,100136.88
2023-03-19T22:04:00.159Z,100131.66
2023-03-19T22:06:28.441Z,100128.13
2023-03-19T22:08:56.522Z,100129.78
2023-03-19T22:11:32.864Z,100134.06
2023-03-19T22:14:06.627Z,100125.34
2023-03-19T22:16:34.640Z,100130.47
2023-03-19T22:19:02.421Z,100125.28
2023-03-19T22:21:33.237Z,100120.94
2023-03-19T22:24:00.591Z,100122.72
2023-03-19T22:26:34.270Z,100116.69
2023-03-19T22:29:08.296Z,100116.72
2023-03-19T22:31:36.209Z,100120.28
2023-03-19T22:34:03.845Z,100118.66
2023-03-19T22:36:31.498Z,100115.22
2023-03-19T22:38:58.629Z,100117.88
2023-03-19T22:41:36.709Z,100117.13
2023-03-19T22:44:08.332Z,100117.19
2023-03-19T22:46:36.252Z,100122.41
2023-03-19T22:49:11.577Z,100112.03
2023-03-19T22:51:40.047Z,100118.94
2023-03-19T22:54:07.511Z,100118.94
2023-03-19T22:56:34.786Z,100115.44
2023-03-19T22:59:02.165Z,100107.69
2023-03-19T23:01:34.980Z,100107.66
2023-03-19T23:04:20.355Z,100106.69
2023-03-19T23:06:48.093Z,100104.91
2023-03-19T23:09:18.412Z,100103.16
2023-03-19T23:11:45.680Z,100113.53
2023-03-19T23:14:28.006Z,100115.22
2023-03-19T23:19:33.192Z,100111.63
2023-03-19T23:22:03.325Z,100115.03
2023-03-19T23:24:31.297Z,100107.22
2023-03-19T23:27:00.068Z,100115.84
2023-03-19T23:29:35.237Z,100114.09
2023-03-19T23:32:03.520Z,100120.22
2023-03-19T23:34:31.518Z,100117.63
2023-03-19T23:37:00.090Z,100112.47
2023-03-19T23:39:27.405Z,100111.59
2023-03-19T23:41:58.093Z,100099.53
2023-03-19T23:44:27.430Z,100102.09
2023-03-19T23:46:55.967Z,100096.88
2023-03-19T23:49:30.518Z,100095.91
2023-03-19T23:51:57.775Z,100095.84
2023-03-19T23:54:30.731Z,100087.94
2023-03-19T23:56:59.869Z,100081.78
2023-03-19T23:59:35.111Z,100079.13
